KDAW

Skyhaven Airport

Rochester, New Hampshire, USA
METAR KDAW 212251Z AUTO 15004KT 10SM CLR 22/14 A2980 RMK AO2 SLP087 T02220144
Observed Flight Rules
Jun-21 @ 22:51 UTC (an hour ago) Visual Flight Rules
Wind Visibility Clouds
150° at 4 knots 10 miles
  • Clear skies
Temperatures Readings
Current 22°C / 72°F
Dewpoint 14°C / 57°F
Humidity 61%
Altimeter 29.8" Hg
Pressure 1008.7 hPa
Elevation 100
METAR KDAW 212251Z AUTO 15004KT 10SM CLR 22/14 A2980 RMK AO2 SLP087 T02220144
Observed Flight Rules
Jun-21 @ 22:51 UTC
(an hour ago)
VFR
Wind Visibility
150° at 4 knots 10 miles
Clouds
  • Clear skies
Temperature Dewpoint
22°C / 72°F 14°C / 57°F
Humidity Altimeter Pressure
61% 29.8" Hg 1008.7 hPa